sensor_id;sensor_type;location;lat;lon;timestamp;P1;durP1;ratioP1;P2;durP2;ratioP2
53881;SDS011;39794;55.782;37.452;2023-06-01T00:02:03;9.38;;;4.03;;
53881;SDS011;39794;55.782;37.452;2023-06-01T00:04:32;10.27;;;4.68;;
53881;SDS011;39794;55.782;37.452;2023-06-01T00:07:01;8.85;;;4.40;;
53881;SDS011;39794;55.782;37.452;2023-06-01T00:09:30;7.55;;;4.63;;
53881;SDS011;39794;55.782;37.452;2023-06-01T00:11:58;11.20;;;4.60;;
53881;SDS011;39794;55.782;37.452;2023-06-01T00:14:27;9.07;;;4.90;;
53881;SDS011;39794;55.782;37.452;2023-06-01T00:16:56;5.85;;;4.40;;
53881;SDS011;39794;55.782;37.452;2023-06-01T00:19:27;8.48;;;4.10;;
53881;SDS011;39794;55.782;37.452;2023-06-01T00:21:57;10.23;;;4.30;;
53881;SDS011;39794;55.782;37.452;2023-06-01T00:24:26;7.57;;;4.22;;
53881;SDS011;39794;55.782;37.452;2023-06-01T00:26:55;8.82;;;4.30;;
53881;SDS011;39794;55.782;37.452;2023-06-01T00:29:24;7.53;;;3.92;;
53881;SDS011;39794;55.782;37.452;2023-06-01T00:31:55;7.82;;;4.32;;
53881;SDS011;39794;55.782;37.452;2023-06-01T00:34:32;8.32;;;4.55;;
53881;SDS011;39794;55.782;37.452;2023-06-01T00:37:04;9.90;;;4.20;;
53881;SDS011;39794;55.782;37.452;2023-06-01T00:39:32;10.43;;;3.65;;
53881;SDS011;39794;55.782;37.452;2023-06-01T00:42:01;8.68;;;4.95;;
53881;SDS011;39794;55.782;37.452;2023-06-01T00:44:29;6.90;;;4.30;;
53881;SDS011;39794;55.782;37.452;2023-06-01T00:46:58;7.65;;;5.18;;
53881;SDS011;39794;55.782;37.452;2023-06-01T00:49:27;9.10;;;4.95;;
53881;SDS011;39794;55.782;37.452;2023-06-01T00:51:57;7.88;;;4.93;;
53881;SDS011;39794;55.782;37.452;2023-06-01T00:54:26;10.93;;;4.90;;
53881;SDS011;39794;55.782;37.452;2023-06-01T00:56:54;9.15;;;5.13;;
53881;SDS011;39794;55.782;37.452;2023-06-01T00:59:24;10.15;;;4.97;;
53881;SDS011;39794;55.782;37.452;2023-06-01T01:01:53;10.68;;;4.75;;
53881;SDS011;39794;55.782;37.452;2023-06-01T01:04:21;6.38;;;4.43;;
53881;SDS011;39794;55.782;37.452;2023-06-01T01:06:56;8.35;;;4.80;;
53881;SDS011;39794;55.782;37.452;2023-06-01T01:09:28;9.88;;;4.82;;
53881;SDS011;39794;55.782;37.452;2023-06-01T01:12:03;8.45;;;4.97;;
53881;SDS011;39794;55.782;37.452;2023-06-01T01:14:36;9.90;;;4.93;;
53881;SDS011;39794;55.782;37.452;2023-06-01T01:17:10;8.00;;;4.50;;
53881;SDS011;39794;55.782;37.452;2023-06-01T01:19:50;7.43;;;5.18;;
53881;SDS011;39794;55.782;37.452;2023-06-01T01:22:31;8.88;;;5.00;;
53881;SDS011;39794;55.782;37.452;2023-06-01T01:25:26;11.13;;;4.82;;
53881;SDS011;39794;55.782;37.452;2023-06-01T01:28:09;6.47;;;4.53;;
53881;SDS011;39794;55.782;37.452;2023-06-01T01:30:44;9.48;;;4.93;;
53881;SDS011;39794;55.782;37.452;2023-06-01T01:33:15;7.53;;;4.60;;
53881;SDS011;39794;55.782;37.452;2023-06-01T01:35:45;12.07;;;5.35;;
53881;SDS011;39794;55.782;37.452;2023-06-01T01:38:14;9.30;;;4.78;;
53881;SDS011;39794;55.782;37.452;2023-06-01T01:40:43;8.10;;;4.38;;
53881;SDS011;39794;55.782;37.452;2023-06-01T01:43:11;9.68;;;4.38;;
53881;SDS011;39794;55.782;37.452;2023-06-01T01:45:40;7.85;;;4.10;;
53881;SDS011;39794;55.782;37.452;2023-06-01T01:48:11;10.52;;;4.22;;
53881;SDS011;39794;55.782;37.452;2023-06-01T01:50:47;8.27;;;4.20;;
53881;SDS011;39794;55.782;37.452;2023-06-01T01:53:19;11.65;;;4.80;;
53881;SDS011;39794;55.782;37.452;2023-06-01T01:55:49;8.80;;;4.53;;
53881;SDS011;39794;55.782;37.452;2023-06-01T01:58:21;7.20;;;4.40;;
53881;SDS011;39794;55.782;37.452;2023-06-01T02:00:51;8.98;;;4.57;;
53881;SDS011;39794;55.782;37.452;2023-06-01T02:03:21;7.60;;;4.10;;
53881;SDS011;39794;55.782;37.452;2023-06-01T02:05:50;8.30;;;4.40;;
53881;SDS011;39794;55.782;37.452;2023-06-01T02:08:18;8.70;;;3.85;;
53881;SDS011;39794;55.782;37.452;2023-06-01T02:10:50;8.27;;;3.90;;
53881;SDS011;39794;55.782;37.452;2023-06-01T02:13:19;10.27;;;4.80;;
53881;SDS011;39794;55.782;37.452;2023-06-01T02:15:48;8.57;;;4.35;;
53881;SDS011;39794;55.782;37.452;2023-06-01T02:18:19;8.45;;;4.28;;
53881;SDS011;39794;55.782;37.452;2023-06-01T02:20:49;5.35;;;3.88;;
53881;SDS011;39794;55.782;37.452;2023-06-01T02:23:18;8.27;;;4.00;;
53881;SDS011;39794;55.782;37.452;2023-06-01T02:25:46;9.93;;;3.85;;
53881;SDS011;39794;55.782;37.452;2023-06-01T02:28:16;6.68;;;4.13;;
53881;SDS011;39794;55.782;37.452;2023-06-01T02:30:45;5.63;;;3.67;;
53881;SDS011;39794;55.782;37.452;2023-06-01T02:33:13;9.95;;;4.10;;
53881;SDS011;39794;55.782;37.452;2023-06-01T02:35:47;9.20;;;4.35;;
53881;SDS011;39794;55.782;37.452;2023-06-01T02:38:15;7.72;;;4.32;;
53881;SDS011;39794;55.782;37.452;2023-06-01T02:40:44;5.70;;;3.40;;
53881;SDS011;39794;55.782;37.452;2023-06-01T02:43:12;9.55;;;4.43;;
53881;SDS011;39794;55.782;37.452;2023-06-01T02:45:41;7.15;;;3.15;;
53881;SDS011;39794;55.782;37.452;2023-06-01T02:48:10;7.88;;;3.95;;
53881;SDS011;39794;55.782;37.452;2023-06-01T02:50:39;7.20;;;3.22;;
53881;SDS011;39794;55.782;37.452;2023-06-01T02:53:09;6.18;;;3.38;;
53881;SDS011;39794;55.782;37.452;2023-06-01T02:55:38;6.57;;;3.15;;
53881;SDS011;39794;55.782;37.452;2023-06-01T02:58:44;7.85;;;2.97;;
53881;SDS011;39794;55.782;37.452;2023-06-01T03:01:27;5.68;;;3.00;;
53881;SDS011;39794;55.782;37.452;2023-06-01T03:04:00;5.30;;;3.35;;
53881;SDS011;39794;55.782;37.452;2023-06-01T03:06:32;7.63;;;2.95;;
53881;SDS011;39794;55.782;37.452;2023-06-01T03:09:38;6.63;;;2.70;;
53881;SDS011;39794;55.782;37.452;2023-06-01T03:12:25;6.93;;;2.55;;
53881;SDS011;39794;55.782;37.452;2023-06-01T03:14:53;6.47;;;2.90;;
53881;SDS011;39794;55.782;37.452;2023-06-01T03:17:22;5.15;;;2.78;;
53881;SDS011;39794;55.782;37.452;2023-06-01T03:19:52;5.65;;;2.40;;
53881;SDS011;39794;55.782;37.452;2023-06-01T03:22:25;3.70;;;2.42;;
53881;SDS011;39794;55.782;37.452;2023-06-01T03:24:55;6.88;;;2.40;;
53881;SDS011;39794;55.782;37.452;2023-06-01T03:27:31;8.02;;;2.60;;
53881;SDS011;39794;55.782;37.452;2023-06-01T03:30:00;5.65;;;2.13;;
53881;SDS011;39794;55.782;37.452;2023-06-01T03:32:31;4.45;;;2.45;;
53881;SDS011;39794;55.782;37.452;2023-06-01T03:35:00;7.28;;;2.60;;
53881;SDS011;39794;55.782;37.452;2023-06-01T03:37:29;6.70;;;3.20;;
53881;SDS011;39794;55.782;37.452;2023-06-01T03:39:59;5.43;;;2.67;;
53881;SDS011;39794;55.782;37.452;2023-06-01T03:42:31;7.75;;;2.53;;
53881;SDS011;39794;55.782;37.452;2023-06-01T03:45:00;3.58;;;2.58;;
53881;SDS011;39794;55.782;37.452;2023-06-01T03:47:33;8.55;;;2.30;;
53881;SDS011;39794;55.782;37.452;2023-06-01T03:50:02;6.93;;;2.85;;
53881;SDS011;39794;55.782;37.452;2023-06-01T03:52:33;9.57;;;2.70;;
53881;SDS011;39794;55.782;37.452;2023-06-01T03:55:04;7.50;;;2.35;;
53881;SDS011;39794;55.782;37.452;2023-06-01T03:57:54;5.45;;;2.40;;
53881;SDS011;39794;55.782;37.452;2023-06-01T04:00:22;9.15;;;3.03;;
53881;SDS011;39794;55.782;37.452;2023-06-01T04:02:52;5.00;;;2.35;;
53881;SDS011;39794;55.782;37.452;2023-06-01T04:05:22;7.22;;;2.72;;
53881;SDS011;39794;55.782;37.452;2023-06-01T04:07:54;7.53;;;2.40;;
53881;SDS011;39794;55.782;37.452;2023-06-01T04:10:24;5.85;;;2.42;;
53881;SDS011;39794;55.782;37.452;2023-06-01T04:12:54;4.35;;;2.47;;
53881;SDS011;39794;55.782;37.452;2023-06-01T04:15:25;6.57;;;1.92;;
53881;SDS011;39794;55.782;37.452;2023-06-01T04:17:55;6.30;;;2.22;;
53881;SDS011;39794;55.782;37.452;2023-06-01T04:20:23;7.50;;;2.28;;
53881;SDS011;39794;55.782;37.452;2023-06-01T04:22:54;3.45;;;2.15;;
53881;SDS011;39794;55.782;37.452;2023-06-01T04:25:24;4.60;;;2.38;;
53881;SDS011;39794;55.782;37.452;2023-06-01T04:27:55;9.10;;;2.50;;
53881;SDS011;39794;55.782;37.452;2023-06-01T04:30:30;4.90;;;2.30;;
53881;SDS011;39794;55.782;37.452;2023-06-01T04:32:58;6.47;;;2.47;;
53881;SDS011;39794;55.782;37.452;2023-06-01T04:35:28;7.97;;;2.42;;
53881;SDS011;39794;55.782;37.452;2023-06-01T04:37:57;5.63;;;2.60;;
53881;SDS011;39794;55.782;37.452;2023-06-01T04:40:28;6.95;;;3.03;;
53881;SDS011;39794;55.782;37.452;2023-06-01T04:42:57;8.52;;;2.22;;
53881;SDS011;39794;55.782;37.452;2023-06-01T04:45:30;6.45;;;2.55;;
53881;SDS011;39794;55.782;37.452;2023-06-01T04:48:01;4.38;;;2.80;;
53881;SDS011;39794;55.782;37.452;2023-06-01T04:50:38;6.88;;;2.60;;
53881;SDS011;39794;55.782;37.452;2023-06-01T04:53:07;9.95;;;2.72;;
53881;SDS011;39794;55.782;37.452;2023-06-01T04:55:39;6.25;;;2.58;;
53881;SDS011;39794;55.782;37.452;2023-06-01T04:58:11;3.43;;;2.97;;
53881;SDS011;39794;55.782;37.452;2023-06-01T05:00:39;7.13;;;2.20;;
53881;SDS011;39794;55.782;37.452;2023-06-01T05:03:08;8.65;;;2.80;;
53881;SDS011;39794;55.782;37.452;2023-06-01T05:05:37;4.65;;;2.60;;
53881;SDS011;39794;55.782;37.452;2023-06-01T05:08:08;7.88;;;2.88;;
53881;SDS011;39794;55.782;37.452;2023-06-01T05:10:38;7.22;;;2.80;;
53881;SDS011;39794;55.782;37.452;2023-06-01T05:13:07;5.47;;;2.30;;
53881;SDS011;39794;55.782;37.452;2023-06-01T05:15:37;7.05;;;2.60;;
53881;SDS011;39794;55.782;37.452;2023-06-01T05:18:06;7.13;;;2.38;;
53881;SDS011;39794;55.782;37.452;2023-06-01T05:20:35;6.55;;;2.78;;
53881;SDS011;39794;55.782;37.452;2023-06-01T05:23:21;5.55;;;2.55;;
53881;SDS011;39794;55.782;37.452;2023-06-01T05:25:53;5.90;;;2.70;;
53881;SDS011;39794;55.782;37.452;2023-06-01T05:28:32;6.45;;;2.92;;
53881;SDS011;39794;55.782;37.452;2023-06-01T05:31:05;6.68;;;2.83;;
53881;SDS011;39794;55.782;37.452;2023-06-01T05:33:39;6.60;;;2.80;;
53881;SDS011;39794;55.782;37.452;2023-06-01T05:36:08;3.80;;;2.38;;
53881;SDS011;39794;55.782;37.452;2023-06-01T05:38:39;7.15;;;2.80;;
53881;SDS011;39794;55.782;37.452;2023-06-01T05:41:09;5.22;;;2.40;;
53881;SDS011;39794;55.782;37.452;2023-06-01T05:43:38;4.28;;;2.90;;
53881;SDS011;39794;55.782;37.452;2023-06-01T05:46:08;8.48;;;3.17;;
53881;SDS011;39794;55.782;37.452;2023-06-01T05:48:40;10.30;;;3.92;;
53881;SDS011;39794;55.782;37.452;2023-06-01T05:51:11;15.00;;;4.28;;
53881;SDS011;39794;55.782;37.452;2023-06-01T05:53:41;10.35;;;3.90;;
53881;SDS011;39794;55.782;37.452;2023-06-01T05:56:12;6.38;;;3.28;;
53881;SDS011;39794;55.782;37.452;2023-06-01T05:58:40;5.53;;;3.60;;
53881;SDS011;39794;55.782;37.452;2023-06-01T06:01:09;10.73;;;3.38;;
53881;SDS011;39794;55.782;37.452;2023-06-01T06:03:38;7.47;;;3.35;;
53881;SDS011;39794;55.782;37.452;2023-06-01T06:06:07;10.40;;;3.13;;
53881;SDS011;39794;55.782;37.452;2023-06-01T06:08:38;6.10;;;2.40;;
53881;SDS011;39794;55.782;37.452;2023-06-01T06:11:07;5.70;;;2.80;;
53881;SDS011;39794;55.782;37.452;2023-06-01T06:13:37;7.22;;;2.70;;
53881;SDS011;39794;55.782;37.452;2023-06-01T06:16:07;12.93;;;2.33;;
53881;SDS011;39794;55.782;37.452;2023-06-01T06:18:36;9.13;;;2.20;;
53881;SDS011;39794;55.782;37.452;2023-06-01T06:21:04;3.85;;;2.30;;
53881;SDS011;39794;55.782;37.452;2023-06-01T06:23:33;4.53;;;2.05;;
53881;SDS011;39794;55.782;37.452;2023-06-01T06:26:02;4.47;;;2.30;;
53881;SDS011;39794;55.782;37.452;2023-06-01T06:28:31;7.38;;;2.10;;
53881;SDS011;39794;55.782;37.452;2023-06-01T06:31:01;11.30;;;2.47;;
53881;SDS011;39794;55.782;37.452;2023-06-01T06:33:30;4.43;;;2.10;;
53881;SDS011;39794;55.782;37.452;2023-06-01T06:35:58;5.57;;;1.98;;
53881;SDS011;39794;55.782;37.452;2023-06-01T06:38:27;4.18;;;2.40;;
53881;SDS011;39794;55.782;37.452;2023-06-01T06:40:55;7.13;;;1.83;;
53881;SDS011;39794;55.782;37.452;2023-06-01T06:43:25;8.43;;;2.10;;
53881;SDS011;39794;55.782;37.452;2023-06-01T06:45:54;3.38;;;1.73;;
53881;SDS011;39794;55.782;37.452;2023-06-01T06:48:24;4.38;;;1.67;;
53881;SDS011;39794;55.782;37.452;2023-06-01T06:50:52;5.50;;;1.88;;
53881;SDS011;39794;55.782;37.452;2023-06-01T06:53:23;6.03;;;2.17;;
53881;SDS011;39794;55.782;37.452;2023-06-01T06:55:52;6.10;;;2.10;;
53881;SDS011;39794;55.782;37.452;2023-06-01T06:58:20;3.28;;;1.80;;
53881;SDS011;39794;55.782;37.452;2023-06-01T07:00:49;3.65;;;1.77;;
53881;SDS011;39794;55.782;37.452;2023-06-01T07:03:17;4.93;;;1.50;;
53881;SDS011;39794;55.782;37.452;2023-06-01T07:05:47;4.82;;;1.70;;
53881;SDS011;39794;55.782;37.452;2023-06-01T07:08:17;8.38;;;2.45;;
53881;SDS011;39794;55.782;37.452;2023-06-01T07:10:46;4.90;;;1.77;;
53881;SDS011;39794;55.782;37.452;2023-06-01T07:13:14;12.60;;;1.73;;
53881;SDS011;39794;55.782;37.452;2023-06-01T07:15:43;5.35;;;1.63;;
53881;SDS011;39794;55.782;37.452;2023-06-01T07:18:12;5.13;;;2.22;;
53881;SDS011;39794;55.782;37.452;2023-06-01T07:20:40;10.18;;;2.92;;
53881;SDS011;39794;55.782;37.452;2023-06-01T07:23:10;10.52;;;1.63;;
53881;SDS011;39794;55.782;37.452;2023-06-01T07:25:40;3.13;;;1.38;;
53881;SDS011;39794;55.782;37.452;2023-06-01T07:28:08;11.35;;;2.60;;
53881;SDS011;39794;55.782;37.452;2023-06-01T07:30:40;5.30;;;1.52;;
53881;SDS011;39794;55.782;37.452;2023-06-01T07:33:09;4.07;;;1.70;;
53881;SDS011;39794;55.782;37.452;2023-06-01T07:35:37;10.85;;;1.73;;
53881;SDS011;39794;55.782;37.452;2023-06-01T07:38:06;3.55;;;1.50;;
53881;SDS011;39794;55.782;37.452;2023-06-01T07:40:36;2.67;;;1.15;;
53881;SDS011;39794;55.782;37.452;2023-06-01T07:43:04;6.32;;;1.75;;
53881;SDS011;39794;55.782;37.452;2023-06-01T07:45:33;4.78;;;1.60;;
53881;SDS011;39794;55.782;37.452;2023-06-01T07:48:02;5.78;;;1.27;;
53881;SDS011;39794;55.782;37.452;2023-06-01T07:50:34;2.33;;;1.48;;
53881;SDS011;39794;55.782;37.452;2023-06-01T07:53:04;4.78;;;1.35;;
53881;SDS011;39794;55.782;37.452;2023-06-01T07:55:32;4.20;;;1.17;;
53881;SDS011;39794;55.782;37.452;2023-06-01T07:58:02;7.05;;;1.45;;
53881;SDS011;39794;55.782;37.452;2023-06-01T08:00:32;7.53;;;1.50;;
53881;SDS011;39794;55.782;37.452;2023-06-01T08:03:01;2.10;;;1.20;;
53881;SDS011;39794;55.782;37.452;2023-06-01T08:05:34;3.03;;;1.77;;
53881;SDS011;39794;55.782;37.452;2023-06-01T08:08:05;4.57;;;1.52;;
53881;SDS011;39794;55.782;37.452;2023-06-01T08:10:36;8.70;;;1.67;;
53881;SDS011;39794;55.782;37.452;2023-06-01T08:13:08;4.00;;;1.73;;
53881;SDS011;39794;55.782;37.452;2023-06-01T08:15:38;4.03;;;1.40;;
53881;SDS011;39794;55.782;37.452;2023-06-01T08:18:06;4.70;;;1.27;;
53881;SDS011;39794;55.782;37.452;2023-06-01T08:20:37;7.40;;;1.55;;
53881;SDS011;39794;55.782;37.452;2023-06-01T08:23:06;5.25;;;1.63;;
53881;SDS011;39794;55.782;37.452;2023-06-01T08:25:35;6.43;;;1.30;;
53881;SDS011;39794;55.782;37.452;2023-06-01T08:28:03;1.38;;;1.10;;
53881;SDS011;39794;55.782;37.452;2023-06-01T08:30:33;4.75;;;1.63;;
53881;SDS011;39794;55.782;37.452;2023-06-01T08:33:02;3.03;;;1.38;;
53881;SDS011;39794;55.782;37.452;2023-06-01T08:35:31;4.07;;;1.50;;
53881;SDS011;39794;55.782;37.452;2023-06-01T08:38:00;2.55;;;1.42;;
53881;SDS011;39794;55.782;37.452;2023-06-01T08:40:29;3.58;;;1.17;;
53881;SDS011;39794;55.782;37.452;2023-06-01T08:42:59;4.15;;;1.27;;
53881;SDS011;39794;55.782;37.452;2023-06-01T08:45:35;2.78;;;1.20;;
53881;SDS011;39794;55.782;37.452;2023-06-01T08:48:07;5.72;;;1.45;;
53881;SDS011;39794;55.782;37.452;2023-06-01T08:50:37;4.95;;;1.20;;
53881;SDS011;39794;55.782;37.452;2023-06-01T08:53:05;3.33;;;1.13;;
53881;SDS011;39794;55.782;37.452;2023-06-01T08:55:35;2.50;;;1.52;;
53881;SDS011;39794;55.782;37.452;2023-06-01T08:58:04;6.07;;;1.40;;
53881;SDS011;39794;55.782;37.452;2023-06-01T09:00:34;6.28;;;1.50;;
53881;SDS011;39794;55.782;37.452;2023-06-01T09:03:03;1.60;;;1.30;;
53881;SDS011;39794;55.782;37.452;2023-06-01T09:05:32;2.88;;;1.48;;
53881;SDS011;39794;55.782;37.452;2023-06-01T09:08:02;6.95;;;1.45;;
53881;SDS011;39794;55.782;37.452;2023-06-01T09:10:30;2.88;;;1.35;;
53881;SDS011;39794;55.782;37.452;2023-06-01T09:13:02;4.15;;;1.35;;
53881;SDS011;39794;55.782;37.452;2023-06-01T09:15:31;2.88;;;1.45;;
53881;SDS011;39794;55.782;37.452;2023-06-01T09:18:11;3.35;;;1.60;;
53881;SDS011;39794;55.782;37.452;2023-06-01T09:20:40;3.90;;;1.48;;
53881;SDS011;39794;55.782;37.452;2023-06-01T09:23:09;3.95;;;1.38;;
53881;SDS011;39794;55.782;37.452;2023-06-01T09:25:38;1.77;;;1.20;;
53881;SDS011;39794;55.782;37.452;2023-06-01T09:28:06;3.08;;;1.40;;
53881;SDS011;39794;55.782;37.452;2023-06-01T09:30:39;5.30;;;1.70;;
53881;SDS011;39794;55.782;37.452;2023-06-01T09:33:12;3.38;;;1.65;;
53881;SDS011;39794;55.782;37.452;2023-06-01T09:35:43;3.78;;;1.50;;
53881;SDS011;39794;55.782;37.452;2023-06-01T09:38:19;2.85;;;1.33;;
53881;SDS011;39794;55.782;37.452;2023-06-01T09:40:56;2.50;;;1.10;;
53881;SDS011;39794;55.782;37.452;2023-06-01T09:43:25;4.60;;;1.10;;
53881;SDS011;39794;55.782;37.452;2023-06-01T09:46:05;5.50;;;1.40;;
53881;SDS011;39794;55.782;37.452;2023-06-01T09:48:36;4.28;;;0.98;;
53881;SDS011;39794;55.782;37.452;2023-06-01T09:51:04;5.68;;;1.30;;
53881;SDS011;39794;55.782;37.452;2023-06-01T09:53:40;2.25;;;1.38;;
53881;SDS011;39794;55.782;37.452;2023-06-01T09:56:09;4.53;;;1.23;;
53881;SDS011;39794;55.782;37.452;2023-06-01T09:58:38;2.38;;;1.20;;
53881;SDS011;39794;55.782;37.452;2023-06-01T10:01:08;3.78;;;1.40;;
53881;SDS011;39794;55.782;37.452;2023-06-01T10:03:41;1.85;;;1.08;;
53881;SDS011;39794;55.782;37.452;2023-06-01T10:06:10;5.22;;;1.10;;
53881;SDS011;39794;55.782;37.452;2023-06-01T10:08:40;2.83;;;1.40;;
53881;SDS011;39794;55.782;37.452;2023-06-01T10:11:09;7.82;;;1.52;;
53881;SDS011;39794;55.782;37.452;2023-06-01T10:13:41;4.28;;;1.60;;
53881;SDS011;39794;55.782;37.452;2023-06-01T10:16:09;3.35;;;1.27;;
53881;SDS011;39794;55.782;37.452;2023-06-01T10:18:41;2.58;;;1.02;;
53881;SDS011;39794;55.782;37.452;2023-06-01T10:21:11;2.35;;;1.23;;
53881;SDS011;39794;55.782;37.452;2023-06-01T10:23:41;2.70;;;1.30;;
53881;SDS011;39794;55.782;37.452;2023-06-01T10:26:11;2.17;;;1.30;;
53881;SDS011;39794;55.782;37.452;2023-06-01T10:28:42;2.70;;;1.92;;
53881;SDS011;39794;55.782;37.452;2023-06-01T10:34:05;3.60;;;1.17;;
53881;SDS011;39794;55.782;37.452;2023-06-01T10:39:38;3.42;;;1.35;;
53881;SDS011;39794;55.782;37.452;2023-06-01T10:45:08;2.35;;;1.23;;
53881;SDS011;39794;55.782;37.452;2023-06-01T10:47:55;4.10;;;1.50;;
53881;SDS011;39794;55.782;37.452;2023-06-01T10:50:25;2.05;;;1.40;;
53881;SDS011;39794;55.782;37.452;2023-06-01T10:52:54;4.53;;;1.63;;
53881;SDS011;39794;55.782;37.452;2023-06-01T10:55:24;3.08;;;1.55;;
53881;SDS011;39794;55.782;37.452;2023-06-01T11:00:53;6.13;;;1.48;;
53881;SDS011;39794;55.782;37.452;2023-06-01T11:06:24;3.45;;;1.60;;
53881;SDS011;39794;55.782;37.452;2023-06-01T11:08:57;3.65;;;1.70;;
53881;SDS011;39794;55.782;37.452;2023-06-01T11:14:30;3.25;;;1.10;;
53881;SDS011;39794;55.782;37.452;2023-06-01T11:19:58;6.15;;;1.33;;
53881;SDS011;39794;55.782;37.452;2023-06-01T11:22:40;1.90;;;1.10;;
53881;SDS011;39794;55.782;37.452;2023-06-01T11:25:09;4.10;;;1.30;;
53881;SDS011;39794;55.782;37.452;2023-06-01T11:27:43;4.28;;;1.30;;
53881;SDS011;39794;55.782;37.452;2023-06-01T11:30:18;1.95;;;1.30;;
53881;SDS011;39794;55.782;37.452;2023-06-01T11:32:49;8.93;;;1.77;;
53881;SDS011;39794;55.782;37.452;2023-06-01T11:35:21;1.33;;;1.00;;
53881;SDS011;39794;55.782;37.452;2023-06-01T11:37:57;2.10;;;1.02;;
53881;SDS011;39794;55.782;37.452;2023-06-01T11:40:29;3.95;;;1.98;;
53881;SDS011;39794;55.782;37.452;2023-06-01T11:43:06;2.83;;;1.48;;
53881;SDS011;39794;55.782;37.452;2023-06-01T11:45:34;4.95;;;1.38;;
53881;SDS011;39794;55.782;37.452;2023-06-01T11:48:10;2.20;;;1.05;;
53881;SDS011;39794;55.782;37.452;2023-06-01T11:50:45;7.20;;;1.40;;
53881;SDS011;39794;55.782;37.452;2023-06-01T11:53:16;4.60;;;1.15;;
53881;SDS011;39794;55.782;37.452;2023-06-01T11:55:48;5.15;;;1.52;;
53881;SDS011;39794;55.782;37.452;2023-06-01T11:58:20;3.80;;;1.13;;
53881;SDS011;39794;55.782;37.452;2023-06-01T12:03:19;3.17;;;1.73;;
53881;SDS011;39794;55.782;37.452;2023-06-01T12:05:48;4.82;;;1.50;;
53881;SDS011;39794;55.782;37.452;2023-06-01T12:08:21;4.03;;;1.63;;
53881;SDS011;39794;55.782;37.452;2023-06-01T12:10:51;6.45;;;1.45;;
53881;SDS011;39794;55.782;37.452;2023-06-01T12:13:21;3.08;;;1.30;;
53881;SDS011;39794;55.782;37.452;2023-06-01T12:15:51;4.65;;;2.10;;
53881;SDS011;39794;55.782;37.452;2023-06-01T12:18:28;3.38;;;1.20;;
53881;SDS011;39794;55.782;37.452;2023-06-01T12:20:58;1.85;;;1.15;;
53881;SDS011;39794;55.782;37.452;2023-06-01T12:23:29;4.88;;;1.23;;
53881;SDS011;39794;55.782;37.452;2023-06-01T12:26:01;5.90;;;1.52;;
53881;SDS011;39794;55.782;37.452;2023-06-01T12:31:24;5.38;;;1.40;;
53881;SDS011;39794;55.782;37.452;2023-06-01T12:33:53;6.88;;;1.45;;
53881;SDS011;39794;55.782;37.452;2023-06-01T12:36:28;5.45;;;1.85;;
53881;SDS011;39794;55.782;37.452;2023-06-01T12:39:00;5.65;;;1.55;;
53881;SDS011;39794;55.782;37.452;2023-06-01T12:41:30;5.13;;;1.42;;
53881;SDS011;39794;55.782;37.452;2023-06-01T12:44:02;3.65;;;1.35;;
53881;SDS011;39794;55.782;37.452;2023-06-01T12:46:32;4.70;;;1.42;;
53881;SDS011;39794;55.782;37.452;2023-06-01T12:49:15;3.75;;;1.17;;
53881;SDS011;39794;55.782;37.452;2023-06-01T12:51:45;2.20;;;1.20;;
53881;SDS011;39794;55.782;37.452;2023-06-01T12:54:17;5.38;;;1.10;;
53881;SDS011;39794;55.782;37.452;2023-06-01T12:56:47;4.30;;;1.30;;
53881;SDS011;39794;55.782;37.452;2023-06-01T12:59:15;4.70;;;1.15;;
53881;SDS011;39794;55.782;37.452;2023-06-01T13:01:47;5.20;;;1.30;;
53881;SDS011;39794;55.782;37.452;2023-06-01T13:04:15;10.43;;;1.90;;
53881;SDS011;39794;55.782;37.452;2023-06-01T13:06:44;7.30;;;1.80;;
53881;SDS011;39794;55.782;37.452;2023-06-01T13:09:13;7.28;;;2.22;;
53881;SDS011;39794;55.782;37.452;2023-06-01T13:11:43;6.50;;;1.77;;
53881;SDS011;39794;55.782;37.452;2023-06-01T13:14:12;4.07;;;1.38;;
53881;SDS011;39794;55.782;37.452;2023-06-01T13:16:41;3.55;;;1.30;;
53881;SDS011;39794;55.782;37.452;2023-06-01T13:19:10;4.85;;;1.70;;
53881;SDS011;39794;55.782;37.452;2023-06-01T13:21:39;4.10;;;1.98;;
53881;SDS011;39794;55.782;37.452;2023-06-01T13:24:08;5.43;;;1.83;;
53881;SDS011;39794;55.782;37.452;2023-06-01T13:26:37;4.32;;;1.77;;
53881;SDS011;39794;55.782;37.452;2023-06-01T13:29:07;4.95;;;1.23;;
53881;SDS011;39794;55.782;37.452;2023-06-01T13:31:37;3.42;;;1.20;;
53881;SDS011;39794;55.782;37.452;2023-06-01T13:34:05;6.63;;;1.27;;
53881;SDS011;39794;55.782;37.452;2023-06-01T13:36:34;8.45;;;2.42;;
53881;SDS011;39794;55.782;37.452;2023-06-01T13:39:02;3.50;;;1.30;;
53881;SDS011;39794;55.782;37.452;2023-06-01T13:41:32;8.25;;;1.42;;
53881;SDS011;39794;55.782;37.452;2023-06-01T13:44:01;2.60;;;1.55;;
53881;SDS011;39794;55.782;37.452;2023-06-01T13:46:31;5.88;;;1.40;;
53881;SDS011;39794;55.782;37.452;2023-06-01T13:49:00;6.50;;;1.67;;
53881;SDS011;39794;55.782;37.452;2023-06-01T13:51:28;3.25;;;1.40;;
53881;SDS011;39794;55.782;37.452;2023-06-01T13:53:57;3.38;;;1.55;;
53881;SDS011;39794;55.782;37.452;2023-06-01T13:56:26;6.85;;;1.50;;
53881;SDS011;39794;55.782;37.452;2023-06-01T13:58:55;3.75;;;1.52;;
53881;SDS011;39794;55.782;37.452;2023-06-01T14:01:25;5.28;;;1.50;;
53881;SDS011;39794;55.782;37.452;2023-06-01T14:03:55;6.57;;;1.60;;
53881;SDS011;39794;55.782;37.452;2023-06-01T14:06:24;5.72;;;1.50;;
53881;SDS011;39794;55.782;37.452;2023-06-01T14:08:52;3.20;;;1.42;;
53881;SDS011;39794;55.782;37.452;2023-06-01T14:11:21;3.30;;;1.50;;
53881;SDS011;39794;55.782;37.452;2023-06-01T14:13:49;5.75;;;1.73;;
53881;SDS011;39794;55.782;37.452;2023-06-01T14:16:19;3.13;;;1.20;;
53881;SDS011;39794;55.782;37.452;2023-06-01T14:18:48;4.43;;;1.70;;
53881;SDS011;39794;55.782;37.452;2023-06-01T14:21:21;6.82;;;1.80;;
53881;SDS011;39794;55.782;37.452;2023-06-01T14:23:50;4.97;;;1.60;;
53881;SDS011;39794;55.782;37.452;2023-06-01T14:26:21;4.20;;;1.50;;
53881;SDS011;39794;55.782;37.452;2023-06-01T14:28:51;5.80;;;2.25;;
53881;SDS011;39794;55.782;37.452;2023-06-01T14:31:19;4.55;;;1.40;;
53881;SDS011;39794;55.782;37.452;2023-06-01T14:33:50;2.22;;;1.17;;
53881;SDS011;39794;55.782;37.452;2023-06-01T14:36:21;4.65;;;1.30;;
53881;SDS011;39794;55.782;37.452;2023-06-01T14:39:11;5.93;;;1.45;;
53881;SDS011;39794;55.782;37.452;2023-06-01T14:41:40;2.50;;;1.25;;
53881;SDS011;39794;55.782;37.452;2023-06-01T14:44:11;2.08;;;1.25;;
53881;SDS011;39794;55.782;37.452;2023-06-01T14:46:42;4.93;;;1.67;;
53881;SDS011;39794;55.782;37.452;2023-06-01T14:49:12;6.28;;;1.83;;
53881;SDS011;39794;55.782;37.452;2023-06-01T14:51:42;5.97;;;1.50;;
53881;SDS011;39794;55.782;37.452;2023-06-01T14:54:10;9.10;;;1.70;;
53881;SDS011;39794;55.782;37.452;2023-06-01T14:56:43;5.20;;;1.63;;
53881;SDS011;39794;55.782;37.452;2023-06-01T14:59:11;5.72;;;1.67;;
53881;SDS011;39794;55.782;37.452;2023-06-01T15:01:42;5.30;;;1.42;;
53881;SDS011;39794;55.782;37.452;2023-06-01T15:04:11;5.07;;;1.38;;
53881;SDS011;39794;55.782;37.452;2023-06-01T15:06:39;5.45;;;1.35;;
53881;SDS011;39794;55.782;37.452;2023-06-01T15:09:09;3.60;;;1.38;;
53881;SDS011;39794;55.782;37.452;2023-06-01T15:11:39;5.13;;;1.60;;
53881;SDS011;39794;55.782;37.452;2023-06-01T15:14:07;4.88;;;1.45;;
53881;SDS011;39794;55.782;37.452;2023-06-01T15:16:36;5.20;;;1.50;;
53881;SDS011;39794;55.782;37.452;2023-06-01T15:19:08;4.15;;;1.38;;
53881;SDS011;39794;55.782;37.452;2023-06-01T15:21:39;7.80;;;2.30;;